logo tempoitalia

Diretta Meteo Dubbo, Australialunedì 31 agosto ore 15:00

Mappa
Sereno 23 °C Sereno 24 Ore: T.min 4 T.max 23
Ponente Ovest Km/h 7.4 Punto di rugiada: 9 °C Umidità: 40% Visibilità: 10 Km
Il sole sorge alle: 06:24 Il sole tramonta alle: 17:48
31 Agosto 2026 15:00 tempo osservato: Sereno Sereno 23 40 1028 vento: Nord O 7.4
31 Agosto 2026 14:30 tempo osservato: Sereno Sereno 23 38 1028 vento: Nord O/SO 11.1
31 Agosto 2026 14:00 tempo osservato: Sereno Sereno 23 40 1028 vento: Nord O/NO 9.3
31 Agosto 2026 13:30 tempo osservato: Sereno Sereno 22 40 1028 vento: Nord O 9.3
31 Agosto 2026 13:00 tempo osservato: Sereno Sereno 22 40 1029 vento: Nord O 11.1
31 Agosto 2026 12:30 tempo osservato: Sereno Sereno 22 40 1029 vento: Nord NO 7.4
31 Agosto 2026 12:00 tempo osservato: Sereno Sereno 21 43 1030 vento: Nord NE 9.3
31 Agosto 2026 11:30 tempo osservato: Sereno Sereno 21 49 1030 vento: Nord E/NE 13
31 Agosto 2026 11:00 tempo osservato: Sereno Sereno 20 52 1031 vento: Nord E 14.8
31 Agosto 2026 10:30 tempo osservato: Sereno Sereno 19 48 1031 vento: Nord E 14.8
31 Agosto 2026 10:00 tempo osservato: Sereno Sereno 17 67 1031 vento: Nord E/SE 11.1
31 Agosto 2026 09:30 tempo osservato: Sereno Sereno 15 72 1031 vento: Nord SE 13
31 Agosto 2026 09:00 tempo osservato: Sereno Sereno 13 76 1031 vento: Nord E/SE 11.1
31 Agosto 2026 08:30 tempo osservato: Sereno Sereno 12 76 1031 vento: Nord SE 14.8
31 Agosto 2026 08:00 tempo osservato: Sereno Sereno 10 93 1031 vento: Nord SE 14.8
31 Agosto 2026 07:30 tempo osservato: Sereno Sereno 9 100 1031 vento: Nord SE 16.7
31 Agosto 2026 07:00 tempo osservato: Sereno Sereno 6 100 1030 vento: Nord SE 13
31 Agosto 2026 06:30 tempo osservato: Sereno Sereno 4 100 1030 vento: Nord E/SE 7.4
31 Agosto 2026 06:00 tempo osservato: Sereno Sereno 5 100 1030 vento: Nord E 7.4
31 Agosto 2026 05:30 tempo osservato: Sereno Sereno 6 100 1029 vento: Nord E/SE 9.3
31 Agosto 2026 05:00 tempo osservato: Sereno Sereno 5 100 1029 vento: Nord SE 11.1
31 Agosto 2026 04:30 tempo osservato: Sereno Sereno 5 100 1029 vento: Nord E/SE 9.3
31 Agosto 2026 04:00 tempo osservato: Sereno Sereno 6 100 1029 vento: Nord N 3.7
31 Agosto 2026 03:30 tempo osservato: Sereno Sereno 6 100 1029 vento: Nord SE 7.4
31 Agosto 2026 03:00 tempo osservato: Sereno Sereno 8 100 1029 vento: Nord S/SE 16.7
31 Agosto 2026 02:30 tempo osservato: Sereno Sereno 7 100 1029 vento: Nord SE 16.7
31 Agosto 2026 02:00 tempo osservato: Sereno Sereno 7 100 1030 vento: Nord N 3.7
31 Agosto 2026 01:30 tempo osservato: Sereno Sereno 8 100 1030 vento: Nord SE 18.5
31 Agosto 2026 01:00 tempo osservato: Sereno Sereno 8 100 1030 vento: Nord E/SE 16.7
31 Agosto 2026 00:30 tempo osservato: Sereno Sereno 9 100 1030 vento: Nord S/SE 18.5
31 Agosto 2026 00:00 tempo osservato: Sereno Sereno 9 100 1030 vento: Nord S/SE 18.5
30 Agosto 2026 23:30 tempo osservato: Sereno Sereno 9 100 1030 vento: Nord SE 16.7
30 Agosto 2026 23:00 tempo osservato: Sereno Sereno 8 100 1030 vento: Nord SE 14.8
30 Agosto 2026 22:30 tempo osservato: Sereno Sereno 9 93 1030 vento: Nord S/SE 11.1
30 Agosto 2026 22:00 tempo osservato: Sereno Sereno 10 81 1030 vento: Nord S/SE 14.8
30 Agosto 2026 21:30 tempo osservato: Sereno Sereno 12 71 1030 vento: Nord S/SE 16.7
30 Agosto 2026 21:00 tempo osservato: Sereno Sereno 11 76 1030 vento: Nord S/SE 14.8
30 Agosto 2026 20:30 tempo osservato: Sereno Sereno 13 71 1030 vento: Nord S 16.7
30 Agosto 2026 20:00 tempo osservato: Sereno Sereno 13 71 1029 vento: Nord S/SO 13
30 Agosto 2026 19:30 tempo osservato: Sereno Sereno 14 67 1029 vento: Nord S/SO 13
30 Agosto 2026 19:00 tempo osservato: Sereno Sereno 14 67 1029 vento: Nord S 11.1
30 Agosto 2026 18:30 tempo osservato: Sereno Sereno 16 58 1029 vento: Nord S/SO 13
30 Agosto 2026 18:00 tempo osservato: Sereno Sereno 16 55 1029 vento: Nord S/SO 9.3
30 Agosto 2026 17:30 tempo osservato: Sereno Sereno 18 45 1029 vento: Nord N 1.8
30 Agosto 2026 17:00 tempo osservato: Sereno Sereno 20 34 1028 vento: Nord N 0
30 Agosto 2026 16:30 tempo osservato: Sereno Sereno 20 37 1028 vento: Nord E/SE 7.4
30 Agosto 2026 16:00 tempo osservato: Sereno Sereno 21 32 1028 vento: Nord S/SE 9.3